sensor_id;sensor_type;location;lat;lon;timestamp;P1;durP1;ratioP1;P2;durP2;ratioP2
22549;SDS011;11441;57.164;-2.120;2022-11-15T00:00:56;28.42;;;16.70;;
22549;SDS011;11441;57.164;-2.120;2022-11-15T00:03:41;29.58;;;17.38;;
22549;SDS011;11441;57.164;-2.120;2022-11-15T00:06:26;23.75;;;13.95;;
22549;SDS011;11441;57.164;-2.120;2022-11-15T00:09:12;18.90;;;12.07;;
22549;SDS011;11441;57.164;-2.120;2022-11-15T00:11:57;28.13;;;17.48;;
22549;SDS011;11441;57.164;-2.120;2022-11-15T00:17:50;20.73;;;15.40;;
22549;SDS011;11441;57.164;-2.120;2022-11-15T00:20:36;33.88;;;17.83;;
22549;SDS011;11441;57.164;-2.120;2022-11-15T00:23:21;33.03;;;18.42;;
22549;SDS011;11441;57.164;-2.120;2022-11-15T00:26:07;28.20;;;18.10;;
22549;SDS011;11441;57.164;-2.120;2022-11-15T00:28:56;30.40;;;18.42;;
22549;SDS011;11441;57.164;-2.120;2022-11-15T00:34:46;26.67;;;16.83;;
22549;SDS011;11441;57.164;-2.120;2022-11-15T00:37:31;20.63;;;14.73;;
22549;SDS011;11441;57.164;-2.120;2022-11-15T00:40:17;28.88;;;18.13;;
22549;SDS011;11441;57.164;-2.120;2022-11-15T00:43:02;35.38;;;19.83;;
22549;SDS011;11441;57.164;-2.120;2022-11-15T00:45:47;31.63;;;18.42;;
22549;SDS011;11441;57.164;-2.120;2022-11-15T00:48:51;27.40;;;17.85;;
22549;SDS011;11441;57.164;-2.120;2022-11-15T00:51:37;28.75;;;18.50;;
22549;SDS011;11441;57.164;-2.120;2022-11-15T00:54:22;27.70;;;18.77;;
22549;SDS011;11441;57.164;-2.120;2022-11-15T00:57:07;31.58;;;19.20;;
22549;SDS011;11441;57.164;-2.120;2022-11-15T00:59:53;33.13;;;19.42;;
22549;SDS011;11441;57.164;-2.120;2022-11-15T01:02:38;26.38;;;15.20;;
22549;SDS011;11441;57.164;-2.120;2022-11-15T01:05:24;24.02;;;15.80;;
22549;SDS011;11441;57.164;-2.120;2022-11-15T01:08:12;34.75;;;19.55;;
22549;SDS011;11441;57.164;-2.120;2022-11-15T01:11:03;27.70;;;14.40;;
22549;SDS011;11441;57.164;-2.120;2022-11-15T01:13:49;23.20;;;13.32;;
22549;SDS011;11441;57.164;-2.120;2022-11-15T01:16:34;33.95;;;19.60;;
22549;SDS011;11441;57.164;-2.120;2022-11-15T01:19:20;33.88;;;16.98;;
22549;SDS011;11441;57.164;-2.120;2022-11-15T01:22:05;33.22;;;19.17;;
22549;SDS011;11441;57.164;-2.120;2022-11-15T01:24:51;29.25;;;17.10;;
22549;SDS011;11441;57.164;-2.120;2022-11-15T01:27:36;29.33;;;16.60;;
22549;SDS011;11441;57.164;-2.120;2022-11-15T01:30:22;20.58;;;13.55;;
22549;SDS011;11441;57.164;-2.120;2022-11-15T01:33:07;28.30;;;15.82;;
22549;SDS011;11441;57.164;-2.120;2022-11-15T01:35:53;27.05;;;16.25;;
22549;SDS011;11441;57.164;-2.120;2022-11-15T01:38:38;37.35;;;18.70;;
22549;SDS011;11441;57.164;-2.120;2022-11-15T01:41:42;31.83;;;17.65;;
22549;SDS011;11441;57.164;-2.120;2022-11-15T01:44:34;31.25;;;15.68;;
22549;SDS011;11441;57.164;-2.120;2022-11-15T01:47:25;22.67;;;14.00;;
22549;SDS011;11441;57.164;-2.120;2022-11-15T01:50:15;28.60;;;16.60;;
22549;SDS011;11441;57.164;-2.120;2022-11-15T01:53:06;24.13;;;16.30;;
22549;SDS011;11441;57.164;-2.120;2022-11-15T01:55:51;28.25;;;18.45;;
22549;SDS011;11441;57.164;-2.120;2022-11-15T01:58:37;32.13;;;17.70;;
22549;SDS011;11441;57.164;-2.120;2022-11-15T02:01:26;28.65;;;18.30;;
22549;SDS011;11441;57.164;-2.120;2022-11-15T02:04:17;25.80;;;15.45;;
22549;SDS011;11441;57.164;-2.120;2022-11-15T02:07:05;30.45;;;17.77;;
22549;SDS011;11441;57.164;-2.120;2022-11-15T02:10:13;30.48;;;18.20;;
22549;SDS011;11441;57.164;-2.120;2022-11-15T02:13:02;28.20;;;16.70;;
22549;SDS011;11441;57.164;-2.120;2022-11-15T02:19:34;25.20;;;17.10;;
22549;SDS011;11441;57.164;-2.120;2022-11-15T02:25:29;23.90;;;16.88;;
22549;SDS011;11441;57.164;-2.120;2022-11-15T02:37:48;31.83;;;16.40;;
22549;SDS011;11441;57.164;-2.120;2022-11-15T02:40:36;26.08;;;16.02;;
22549;SDS011;11441;57.164;-2.120;2022-11-15T02:43:38;25.67;;;16.67;;
22549;SDS011;11441;57.164;-2.120;2022-11-15T02:49:54;22.67;;;13.85;;
22549;SDS011;11441;57.164;-2.120;2022-11-15T02:52:47;31.13;;;16.13;;
22549;SDS011;11441;57.164;-2.120;2022-11-15T02:55:43;29.13;;;14.13;;
22549;SDS011;11441;57.164;-2.120;2022-11-15T03:01:33;22.98;;;12.48;;
22549;SDS011;11441;57.164;-2.120;2022-11-15T03:08:06;21.30;;;12.02;;
22549;SDS011;11441;57.164;-2.120;2022-11-15T03:11:10;21.95;;;11.38;;
22549;SDS011;11441;57.164;-2.120;2022-11-15T03:16:51;26.85;;;12.82;;
22549;SDS011;11441;57.164;-2.120;2022-11-15T03:19:48;18.90;;;10.43;;
22549;SDS011;11441;57.164;-2.120;2022-11-15T03:22:37;22.92;;;14.32;;
22549;SDS011;11441;57.164;-2.120;2022-11-15T03:25:27;24.38;;;13.60;;
22549;SDS011;11441;57.164;-2.120;2022-11-15T03:28:18;29.17;;;14.05;;
22549;SDS011;11441;57.164;-2.120;2022-11-15T03:31:10;25.20;;;13.85;;
22549;SDS011;11441;57.164;-2.120;2022-11-15T03:37:20;29.90;;;15.60;;
22549;SDS011;11441;57.164;-2.120;2022-11-15T03:40:07;30.58;;;13.82;;
22549;SDS011;11441;57.164;-2.120;2022-11-15T03:43:02;24.30;;;12.43;;
22549;SDS011;11441;57.164;-2.120;2022-11-15T03:45:58;28.88;;;15.30;;
22549;SDS011;11441;57.164;-2.120;2022-11-15T03:48:56;24.83;;;13.13;;
22549;SDS011;11441;57.164;-2.120;2022-11-15T03:52:00;33.08;;;14.40;;
22549;SDS011;11441;57.164;-2.120;2022-11-15T03:54:55;26.95;;;14.13;;
22549;SDS011;11441;57.164;-2.120;2022-11-15T03:57:41;24.52;;;14.35;;
22549;SDS011;11441;57.164;-2.120;2022-11-15T04:00:27;32.05;;;16.65;;
22549;SDS011;11441;57.164;-2.120;2022-11-15T04:03:13;25.00;;;14.18;;
22549;SDS011;11441;57.164;-2.120;2022-11-15T04:05:58;25.95;;;14.20;;
22549;SDS011;11441;57.164;-2.120;2022-11-15T04:08:44;38.75;;;18.63;;
22549;SDS011;11441;57.164;-2.120;2022-11-15T04:11:32;32.38;;;17.63;;
22549;SDS011;11441;57.164;-2.120;2022-11-15T04:14:17;28.02;;;18.65;;
22549;SDS011;11441;57.164;-2.120;2022-11-15T04:17:02;32.25;;;17.55;;
22549;SDS011;11441;57.164;-2.120;2022-11-15T04:19:48;31.05;;;16.63;;
22549;SDS011;11441;57.164;-2.120;2022-11-15T04:22:52;30.05;;;18.70;;
22549;SDS011;11441;57.164;-2.120;2022-11-15T04:26:19;27.75;;;17.40;;
22549;SDS011;11441;57.164;-2.120;2022-11-15T04:29:05;29.20;;;17.77;;
22549;SDS011;11441;57.164;-2.120;2022-11-15T04:32:09;32.97;;;20.35;;
22549;SDS011;11441;57.164;-2.120;2022-11-15T04:34:55;29.85;;;15.27;;
22549;SDS011;11441;57.164;-2.120;2022-11-15T04:37:40;21.85;;;15.40;;
22549;SDS011;11441;57.164;-2.120;2022-11-15T04:40:33;37.60;;;18.55;;
22549;SDS011;11441;57.164;-2.120;2022-11-15T04:43:18;27.92;;;16.88;;
22549;SDS011;11441;57.164;-2.120;2022-11-15T04:46:03;28.58;;;16.70;;
22549;SDS011;11441;57.164;-2.120;2022-11-15T04:48:49;32.08;;;19.50;;
22549;SDS011;11441;57.164;-2.120;2022-11-15T04:51:42;23.60;;;14.88;;
22549;SDS011;11441;57.164;-2.120;2022-11-15T04:54:27;35.00;;;18.92;;
22549;SDS011;11441;57.164;-2.120;2022-11-15T04:57:12;29.15;;;18.33;;
22549;SDS011;11441;57.164;-2.120;2022-11-15T04:59:58;36.35;;;20.85;;
22549;SDS011;11441;57.164;-2.120;2022-11-15T05:02:44;29.35;;;18.33;;
22549;SDS011;11441;57.164;-2.120;2022-11-15T05:05:48;35.00;;;19.52;;
22549;SDS011;11441;57.164;-2.120;2022-11-15T05:08:52;32.85;;;20.00;;
22549;SDS011;11441;57.164;-2.120;2022-11-15T05:11:37;34.13;;;20.17;;
22549;SDS011;11441;57.164;-2.120;2022-11-15T05:14:23;44.58;;;21.38;;
22549;SDS011;11441;57.164;-2.120;2022-11-15T05:17:08;27.60;;;18.83;;
22549;SDS011;11441;57.164;-2.120;2022-11-15T05:19:53;40.95;;;21.15;;
22549;SDS011;11441;57.164;-2.120;2022-11-15T05:22:39;32.80;;;21.38;;
22549;SDS011;11441;57.164;-2.120;2022-11-15T05:25:25;28.67;;;16.80;;
22549;SDS011;11441;57.164;-2.120;2022-11-15T05:28:10;33.45;;;17.65;;
22549;SDS011;11441;57.164;-2.120;2022-11-15T05:31:14;31.23;;;18.83;;
22549;SDS011;11441;57.164;-2.120;2022-11-15T05:34:00;36.20;;;19.63;;
22549;SDS011;11441;57.164;-2.120;2022-11-15T05:36:47;31.13;;;20.17;;
22549;SDS011;11441;57.164;-2.120;2022-11-15T05:39:32;40.15;;;23.95;;
22549;SDS011;11441;57.164;-2.120;2022-11-15T05:42:18;28.33;;;18.08;;
22549;SDS011;11441;57.164;-2.120;2022-11-15T05:45:05;34.40;;;18.77;;
22549;SDS011;11441;57.164;-2.120;2022-11-15T05:47:51;38.95;;;20.13;;
22549;SDS011;11441;57.164;-2.120;2022-11-15T05:50:39;40.70;;;24.23;;
22549;SDS011;11441;57.164;-2.120;2022-11-15T05:53:29;35.33;;;21.92;;
22549;SDS011;11441;57.164;-2.120;2022-11-15T05:56:15;45.03;;;25.20;;
22549;SDS011;11441;57.164;-2.120;2022-11-15T05:59:01;36.67;;;22.90;;
22549;SDS011;11441;57.164;-2.120;2022-11-15T06:01:47;39.22;;;26.30;;
22549;SDS011;11441;57.164;-2.120;2022-11-15T06:04:33;40.00;;;26.05;;
22549;SDS011;11441;57.164;-2.120;2022-11-15T06:07:18;39.03;;;24.33;;
22549;SDS011;11441;57.164;-2.120;2022-11-15T06:10:04;36.20;;;22.27;;
22549;SDS011;11441;57.164;-2.120;2022-11-15T06:12:59;41.25;;;23.08;;
22549;SDS011;11441;57.164;-2.120;2022-11-15T06:15:45;44.20;;;25.25;;
22549;SDS011;11441;57.164;-2.120;2022-11-15T06:18:31;44.35;;;25.00;;
22549;SDS011;11441;57.164;-2.120;2022-11-15T06:21:18;37.88;;;22.52;;
22549;SDS011;11441;57.164;-2.120;2022-11-15T06:24:04;43.78;;;25.95;;
22549;SDS011;11441;57.164;-2.120;2022-11-15T06:26:50;46.58;;;28.83;;
22549;SDS011;11441;57.164;-2.120;2022-11-15T06:29:35;41.33;;;27.27;;
22549;SDS011;11441;57.164;-2.120;2022-11-15T06:32:21;44.85;;;25.60;;
22549;SDS011;11441;57.164;-2.120;2022-11-15T06:35:06;49.10;;;28.38;;
22549;SDS011;11441;57.164;-2.120;2022-11-15T06:37:52;41.58;;;26.30;;
22549;SDS011;11441;57.164;-2.120;2022-11-15T06:40:38;38.40;;;24.13;;
22549;SDS011;11441;57.164;-2.120;2022-11-15T06:43:24;41.67;;;26.38;;
22549;SDS011;11441;57.164;-2.120;2022-11-15T06:46:09;42.05;;;23.40;;
22549;SDS011;11441;57.164;-2.120;2022-11-15T06:48:55;38.60;;;23.60;;
22549;SDS011;11441;57.164;-2.120;2022-11-15T06:51:40;36.42;;;22.60;;
22549;SDS011;11441;57.164;-2.120;2022-11-15T06:54:25;42.17;;;22.55;;
22549;SDS011;11441;57.164;-2.120;2022-11-15T06:57:11;39.72;;;21.25;;
22549;SDS011;11441;57.164;-2.120;2022-11-15T06:59:56;33.25;;;21.25;;
22549;SDS011;11441;57.164;-2.120;2022-11-15T07:02:41;37.30;;;21.67;;
22549;SDS011;11441;57.164;-2.120;2022-11-15T07:05:27;41.95;;;22.75;;
22549;SDS011;11441;57.164;-2.120;2022-11-15T07:08:12;36.85;;;20.83;;
22549;SDS011;11441;57.164;-2.120;2022-11-15T07:10:59;41.65;;;21.45;;
22549;SDS011;11441;57.164;-2.120;2022-11-15T07:13:46;34.78;;;22.10;;
22549;SDS011;11441;57.164;-2.120;2022-11-15T07:16:31;42.28;;;19.75;;
22549;SDS011;11441;57.164;-2.120;2022-11-15T07:19:16;38.83;;;20.27;;
22549;SDS011;11441;57.164;-2.120;2022-11-15T07:22:02;38.13;;;20.92;;
22549;SDS011;11441;57.164;-2.120;2022-11-15T07:24:47;37.63;;;20.02;;
22549;SDS011;11441;57.164;-2.120;2022-11-15T07:27:33;36.38;;;20.02;;
22549;SDS011;11441;57.164;-2.120;2022-11-15T07:30:18;37.28;;;19.63;;
22549;SDS011;11441;57.164;-2.120;2022-11-15T07:33:03;34.42;;;18.42;;
22549;SDS011;11441;57.164;-2.120;2022-11-15T07:35:49;40.13;;;21.70;;
22549;SDS011;11441;57.164;-2.120;2022-11-15T07:38:34;37.05;;;19.38;;
22549;SDS011;11441;57.164;-2.120;2022-11-15T07:41:26;42.33;;;19.90;;
22549;SDS011;11441;57.164;-2.120;2022-11-15T07:44:12;31.33;;;19.15;;
22549;SDS011;11441;57.164;-2.120;2022-11-15T07:46:57;41.85;;;20.20;;
22549;SDS011;11441;57.164;-2.120;2022-11-15T07:49:43;33.53;;;19.13;;
22549;SDS011;11441;57.164;-2.120;2022-11-15T07:52:28;44.97;;;21.10;;
22549;SDS011;11441;57.164;-2.120;2022-11-15T07:55:14;39.90;;;20.80;;
22549;SDS011;11441;57.164;-2.120;2022-11-15T07:58:09;37.85;;;23.17;;
22549;SDS011;11441;57.164;-2.120;2022-11-15T08:00:55;42.50;;;21.15;;
22549;SDS011;11441;57.164;-2.120;2022-11-15T08:03:41;31.85;;;18.95;;
22549;SDS011;11441;57.164;-2.120;2022-11-15T08:06:27;40.72;;;21.08;;
22549;SDS011;11441;57.164;-2.120;2022-11-15T08:09:30;37.30;;;20.48;;
22549;SDS011;11441;57.164;-2.120;2022-11-15T08:12:15;37.33;;;19.30;;
22549;SDS011;11441;57.164;-2.120;2022-11-15T08:15:01;44.88;;;19.50;;
22549;SDS011;11441;57.164;-2.120;2022-11-15T08:17:46;44.35;;;22.80;;
22549;SDS011;11441;57.164;-2.120;2022-11-15T08:20:32;33.60;;;20.35;;
22549;SDS011;11441;57.164;-2.120;2022-11-15T08:23:18;52.88;;;25.25;;
22549;SDS011;11441;57.164;-2.120;2022-11-15T08:26:05;39.47;;;20.98;;
22549;SDS011;11441;57.164;-2.120;2022-11-15T08:29:08;39.92;;;19.77;;
22549;SDS011;11441;57.164;-2.120;2022-11-15T08:31:54;37.88;;;20.67;;
22549;SDS011;11441;57.164;-2.120;2022-11-15T08:34:41;43.20;;;19.48;;
22549;SDS011;11441;57.164;-2.120;2022-11-15T08:37:26;34.35;;;18.33;;
22549;SDS011;11441;57.164;-2.120;2022-11-15T08:40:12;40.08;;;21.85;;
22549;SDS011;11441;57.164;-2.120;2022-11-15T08:42:58;41.08;;;21.38;;
22549;SDS011;11441;57.164;-2.120;2022-11-15T08:45:46;40.60;;;21.65;;
22549;SDS011;11441;57.164;-2.120;2022-11-15T08:48:32;44.28;;;23.55;;
22549;SDS011;11441;57.164;-2.120;2022-11-15T08:51:18;46.55;;;23.73;;
22549;SDS011;11441;57.164;-2.120;2022-11-15T08:54:04;44.10;;;23.25;;
22549;SDS011;11441;57.164;-2.120;2022-11-15T08:56:49;40.25;;;22.60;;
22549;SDS011;11441;57.164;-2.120;2022-11-15T08:59:35;47.55;;;24.00;;
22549;SDS011;11441;57.164;-2.120;2022-11-15T09:02:21;36.83;;;20.40;;
22549;SDS011;11441;57.164;-2.120;2022-11-15T09:05:06;42.47;;;22.55;;
22549;SDS011;11441;57.164;-2.120;2022-11-15T09:07:53;45.28;;;21.52;;
22549;SDS011;11441;57.164;-2.120;2022-11-15T09:11:16;38.38;;;21.60;;
22549;SDS011;11441;57.164;-2.120;2022-11-15T09:14:05;38.38;;;20.38;;
22549;SDS011;11441;57.164;-2.120;2022-11-15T09:16:50;32.58;;;19.83;;
22549;SDS011;11441;57.164;-2.120;2022-11-15T09:19:36;37.75;;;21.38;;
22549;SDS011;11441;57.164;-2.120;2022-11-15T09:22:21;38.80;;;20.17;;
22549;SDS011;11441;57.164;-2.120;2022-11-15T09:28:11;37.08;;;20.63;;
22549;SDS011;11441;57.164;-2.120;2022-11-15T09:30:57;37.95;;;19.80;;
22549;SDS011;11441;57.164;-2.120;2022-11-15T09:33:44;32.00;;;18.75;;
22549;SDS011;11441;57.164;-2.120;2022-11-15T09:39:34;33.83;;;19.27;;
22549;SDS011;11441;57.164;-2.120;2022-11-15T09:45:37;29.38;;;18.10;;
22549;SDS011;11441;57.164;-2.120;2022-11-15T09:48:49;33.75;;;18.05;;
22549;SDS011;11441;57.164;-2.120;2022-11-15T09:51:28;30.13;;;17.30;;
22549;SDS011;11441;57.164;-2.120;2022-11-15T09:53:59;30.88;;;18.35;;
22549;SDS011;11441;57.164;-2.120;2022-11-15T09:57:04;38.80;;;20.48;;
22549;SDS011;11441;57.164;-2.120;2022-11-15T10:02:57;35.20;;;18.15;;
22549;SDS011;11441;57.164;-2.120;2022-11-15T10:05:47;33.60;;;19.00;;
22549;SDS011;11441;57.164;-2.120;2022-11-15T10:10:44;31.27;;;16.73;;
22549;SDS011;11441;57.164;-2.120;2022-11-15T10:13:31;27.73;;;17.98;;
22549;SDS011;11441;57.164;-2.120;2022-11-15T10:24:27;31.10;;;19.55;;
22549;SDS011;11441;57.164;-2.120;2022-11-15T10:27:16;34.22;;;19.02;;
22549;SDS011;11441;57.164;-2.120;2022-11-15T10:29:44;39.05;;;20.98;;
22549;SDS011;11441;57.164;-2.120;2022-11-15T10:32:15;37.95;;;19.63;;
22549;SDS011;11441;57.164;-2.120;2022-11-15T10:34:46;33.22;;;17.33;;
22549;SDS011;11441;57.164;-2.120;2022-11-15T10:40:04;45.85;;;23.50;;
22549;SDS011;11441;57.164;-2.120;2022-11-15T10:42:32;35.28;;;21.67;;
22549;SDS011;11441;57.164;-2.120;2022-11-15T10:44:59;48.17;;;22.77;;
22549;SDS011;11441;57.164;-2.120;2022-11-15T10:50:00;38.88;;;21.25;;
22549;SDS011;11441;57.164;-2.120;2022-11-15T10:52:34;32.25;;;20.15;;
22549;SDS011;11441;57.164;-2.120;2022-11-15T10:55:20;37.10;;;20.02;;
22549;SDS011;11441;57.164;-2.120;2022-11-15T10:57:55;38.42;;;21.10;;
22549;SDS011;11441;57.164;-2.120;2022-11-15T11:06:50;43.47;;;21.92;;
22549;SDS011;11441;57.164;-2.120;2022-11-15T11:12:11;38.25;;;21.05;;
22549;SDS011;11441;57.164;-2.120;2022-11-15T11:14:38;34.95;;;19.63;;
22549;SDS011;11441;57.164;-2.120;2022-11-15T11:25:02;30.30;;;17.40;;
22549;SDS011;11441;57.164;-2.120;2022-11-15T11:31:13;37.00;;;18.00;;
22549;SDS011;11441;57.164;-2.120;2022-11-15T11:33:22;33.10;;;16.45;;
22549;SDS011;11441;57.164;-2.120;2022-11-15T11:38:53;24.48;;;13.45;;
22549;SDS011;11441;57.164;-2.120;2022-11-15T11:41:37;25.40;;;11.32;;
22549;SDS011;11441;57.164;-2.120;2022-11-15T12:00:24;15.88;;;4.03;;
22549;SDS011;11441;57.164;-2.120;2022-11-15T12:05:40;14.88;;;3.05;;
22549;SDS011;11441;57.164;-2.120;2022-11-15T12:13:59;9.25;;;2.55;;
22549;SDS011;11441;57.164;-2.120;2022-11-15T12:16:30;5.30;;;2.17;;
22549;SDS011;11441;57.164;-2.120;2022-11-15T12:19:00;17.13;;;4.15;;
22549;SDS011;11441;57.164;-2.120;2022-11-15T12:24:48;14.20;;;4.03;;
22549;SDS011;11441;57.164;-2.120;2022-11-15T12:29:54;15.10;;;4.35;;
22549;SDS011;11441;57.164;-2.120;2022-11-15T12:32:49;11.85;;;3.80;;
22549;SDS011;11441;57.164;-2.120;2022-11-15T12:35:25;7.85;;;3.30;;
22549;SDS011;11441;57.164;-2.120;2022-11-15T12:37:54;12.60;;;3.88;;
22549;SDS011;11441;57.164;-2.120;2022-11-15T12:43:40;12.10;;;3.97;;
22549;SDS011;11441;57.164;-2.120;2022-11-15T12:49:08;10.90;;;3.03;;
22549;SDS011;11441;57.164;-2.120;2022-11-15T13:02:31;12.65;;;4.22;;
22549;SDS011;11441;57.164;-2.120;2022-11-15T13:13:08;12.70;;;3.83;;
22549;SDS011;11441;57.164;-2.120;2022-11-15T13:15:37;15.82;;;4.65;;
22549;SDS011;11441;57.164;-2.120;2022-11-15T13:20:54;12.00;;;3.38;;
22549;SDS011;11441;57.164;-2.120;2022-11-15T13:26:17;14.40;;;4.95;;
22549;SDS011;11441;57.164;-2.120;2022-11-15T13:28:44;11.93;;;4.50;;
22549;SDS011;11441;57.164;-2.120;2022-11-15T13:39:48;18.02;;;4.07;;
22549;SDS011;11441;57.164;-2.120;2022-11-15T13:42:16;11.20;;;3.53;;
22549;SDS011;11441;57.164;-2.120;2022-11-15T13:45:04;12.57;;;3.38;;
22549;SDS011;11441;57.164;-2.120;2022-11-15T13:47:31;19.20;;;4.95;;
22549;SDS011;11441;57.164;-2.120;2022-11-15T13:50:15;13.32;;;4.45;;
22549;SDS011;11441;57.164;-2.120;2022-11-15T13:52:42;20.95;;;5.00;;
22549;SDS011;11441;57.164;-2.120;2022-11-15T13:55:13;18.92;;;4.93;;
22549;SDS011;11441;57.164;-2.120;2022-11-15T14:03:24;20.15;;;4.15;;
22549;SDS011;11441;57.164;-2.120;2022-11-15T14:06:10;18.33;;;4.90;;
22549;SDS011;11441;57.164;-2.120;2022-11-15T14:08:39;16.98;;;4.50;;
22549;SDS011;11441;57.164;-2.120;2022-11-15T14:11:25;15.18;;;3.47;;
22549;SDS011;11441;57.164;-2.120;2022-11-15T14:16:42;14.48;;;3.60;;
22549;SDS011;11441;57.164;-2.120;2022-11-15T14:24:41;17.73;;;5.00;;
22549;SDS011;11441;57.164;-2.120;2022-11-15T14:27:19;18.75;;;4.97;;
22549;SDS011;11441;57.164;-2.120;2022-11-15T14:30:15;18.13;;;4.32;;
22549;SDS011;11441;57.164;-2.120;2022-11-15T14:35:29;19.73;;;4.03;;
22549;SDS011;11441;57.164;-2.120;2022-11-15T14:37:55;13.82;;;3.78;;
22549;SDS011;11441;57.164;-2.120;2022-11-15T14:40:22;16.00;;;3.25;;
22549;SDS011;11441;57.164;-2.120;2022-11-15T14:42:49;14.95;;;4.45;;
22549;SDS011;11441;57.164;-2.120;2022-11-15T14:45:18;21.92;;;4.90;;
22549;SDS011;11441;57.164;-2.120;2022-11-15T14:48:03;23.63;;;4.57;;
22549;SDS011;11441;57.164;-2.120;2022-11-15T14:50:31;17.40;;;4.30;;
22549;SDS011;11441;57.164;-2.120;2022-11-15T14:53:00;27.73;;;5.00;;
22549;SDS011;11441;57.164;-2.120;2022-11-15T14:56:22;32.63;;;5.03;;
22549;SDS011;11441;57.164;-2.120;2022-11-15T14:58:49;26.52;;;4.18;;
22549;SDS011;11441;57.164;-2.120;2022-11-15T15:01:20;35.00;;;6.68;;
22549;SDS011;11441;57.164;-2.120;2022-11-15T15:03:50;20.27;;;3.63;;
22549;SDS011;11441;57.164;-2.120;2022-11-15T15:06:26;21.75;;;3.83;;
22549;SDS011;11441;57.164;-2.120;2022-11-15T15:08:53;27.60;;;5.40;;
22549;SDS011;11441;57.164;-2.120;2022-11-15T15:11:23;22.70;;;4.40;;
22549;SDS011;11441;57.164;-2.120;2022-11-15T15:13:52;31.35;;;4.75;;
22549;SDS011;11441;57.164;-2.120;2022-11-15T15:16:23;34.63;;;6.03;;
22549;SDS011;11441;57.164;-2.120;2022-11-15T15:18:50;26.63;;;4.38;;
22549;SDS011;11441;57.164;-2.120;2022-11-15T15:21:23;14.73;;;4.30;;
22549;SDS011;11441;57.164;-2.120;2022-11-15T15:23:57;23.30;;;4.55;;
22549;SDS011;11441;57.164;-2.120;2022-11-15T15:26:24;24.50;;;5.75;;
22549;SDS011;11441;57.164;-2.120;2022-11-15T15:28:51;30.98;;;4.95;;
22549;SDS011;11441;57.164;-2.120;2022-11-15T15:31:18;23.65;;;4.35;;
22549;SDS011;11441;57.164;-2.120;2022-11-15T15:33:45;29.08;;;4.65;;
22549;SDS011;11441;57.164;-2.120;2022-11-15T15:36:12;32.63;;;6.10;;
22549;SDS011;11441;57.164;-2.120;2022-11-15T15:38:40;25.58;;;4.75;;
22549;SDS011;11441;57.164;-2.120;2022-11-15T15:41:11;30.58;;;4.78;;
22549;SDS011;11441;57.164;-2.120;2022-11-15T15:43:38;29.05;;;5.07;;
22549;SDS011;11441;57.164;-2.120;2022-11-15T15:46:08;33.50;;;5.80;;
22549;SDS011;11441;57.164;-2.120;2022-11-15T15:48:58;39.85;;;6.90;;
22549;SDS011;11441;57.164;-2.120;2022-11-15T15:51:25;28.52;;;5.50;;
22549;SDS011;11441;57.164;-2.120;2022-11-15T15:53:52;28.30;;;6.32;;
22549;SDS011;11441;57.164;-2.120;2022-11-15T15:56:23;26.35;;;4.43;;
22549;SDS011;11441;57.164;-2.120;2022-11-15T15:58:50;29.70;;;5.20;;
22549;SDS011;11441;57.164;-2.120;2022-11-15T16:01:18;32.55;;;6.60;;
22549;SDS011;11441;57.164;-2.120;2022-11-15T16:03:46;34.63;;;6.10;;
22549;SDS011;11441;57.164;-2.120;2022-11-15T16:06:25;36.08;;;7.28;;
22549;SDS011;11441;57.164;-2.120;2022-11-15T16:09:01;39.78;;;6.35;;
22549;SDS011;11441;57.164;-2.120;2022-11-15T16:11:45;22.60;;;5.50;;
22549;SDS011;11441;57.164;-2.120;2022-11-15T16:14:12;38.70;;;6.70;;
22549;SDS011;11441;57.164;-2.120;2022-11-15T16:16:39;37.17;;;5.43;;
22549;SDS011;11441;57.164;-2.120;2022-11-15T16:19:07;22.25;;;4.32;;
22549;SDS011;11441;57.164;-2.120;2022-11-15T16:21:35;23.67;;;5.70;;
22549;SDS011;11441;57.164;-2.120;2022-11-15T16:24:02;34.70;;;7.70;;
22549;SDS011;11441;57.164;-2.120;2022-11-15T16:26:29;23.83;;;4.97;;
22549;SDS011;11441;57.164;-2.120;2022-11-15T16:28:56;29.30;;;5.22;;
22549;SDS011;11441;57.164;-2.120;2022-11-15T16:31:24;28.20;;;4.68;;
22549;SDS011;11441;57.164;-2.120;2022-11-15T16:34:09;30.90;;;4.97;;
22549;SDS011;11441;57.164;-2.120;2022-11-15T16:36:36;39.45;;;7.13;;
22549;SDS011;11441;57.164;-2.120;2022-11-15T16:39:03;22.02;;;5.00;;
22549;SDS011;11441;57.164;-2.120;2022-11-15T16:41:30;29.63;;;6.38;;
22549;SDS011;11441;57.164;-2.120;2022-11-15T16:43:57;41.90;;;6.05;;
22549;SDS011;11441;57.164;-2.120;2022-11-15T16:46:25;40.30;;;5.78;;
22549;SDS011;11441;57.164;-2.120;2022-11-15T16:48:54;27.05;;;6.65;;
22549;SDS011;11441;57.164;-2.120;2022-11-15T16:51:22;28.10;;;4.53;;
22549;SDS011;11441;57.164;-2.120;2022-11-15T16:53:49;27.90;;;5.35;;
22549;SDS011;11441;57.164;-2.120;2022-11-15T16:56:28;26.73;;;5.75;;
22549;SDS011;11441;57.164;-2.120;2022-11-15T16:58:56;31.13;;;5.22;;
22549;SDS011;11441;57.164;-2.120;2022-11-15T17:01:29;34.00;;;5.93;;
22549;SDS011;11441;57.164;-2.120;2022-11-15T17:04:17;30.20;;;6.18;;
22549;SDS011;11441;57.164;-2.120;2022-11-15T17:06:46;33.35;;;5.70;;
22549;SDS011;11441;57.164;-2.120;2022-11-15T17:09:32;28.17;;;6.30;;
22549;SDS011;11441;57.164;-2.120;2022-11-15T17:11:59;24.75;;;5.50;;
22549;SDS011;11441;57.164;-2.120;2022-11-15T17:14:26;30.63;;;5.28;;
22549;SDS011;11441;57.164;-2.120;2022-11-15T17:16:53;25.80;;;5.50;;
22549;SDS011;11441;57.164;-2.120;2022-11-15T17:19:23;36.75;;;6.75;;
22549;SDS011;11441;57.164;-2.120;2022-11-15T17:21:49;34.55;;;5.95;;
22549;SDS011;11441;57.164;-2.120;2022-11-15T17:24:16;31.27;;;5.82;;
22549;SDS011;11441;57.164;-2.120;2022-11-15T17:26:46;30.65;;;6.75;;
22549;SDS011;11441;57.164;-2.120;2022-11-15T17:29:13;35.17;;;5.55;;
22549;SDS011;11441;57.164;-2.120;2022-11-15T17:31:58;28.10;;;5.18;;
22549;SDS011;11441;57.164;-2.120;2022-11-15T17:34:25;40.95;;;6.03;;
22549;SDS011;11441;57.164;-2.120;2022-11-15T17:36:52;31.42;;;6.15;;
22549;SDS011;11441;57.164;-2.120;2022-11-15T17:39:18;36.13;;;6.40;;
22549;SDS011;11441;57.164;-2.120;2022-11-15T17:41:46;37.25;;;6.20;;
22549;SDS011;11441;57.164;-2.120;2022-11-15T17:44:13;33.35;;;6.85;;
22549;SDS011;11441;57.164;-2.120;2022-11-15T17:46:39;27.50;;;6.43;;
22549;SDS011;11441;57.164;-2.120;2022-11-15T17:49:08;33.20;;;6.22;;
22549;SDS011;11441;57.164;-2.120;2022-11-15T17:54:20;37.13;;;6.75;;
22549;SDS011;11441;57.164;-2.120;2022-11-15T17:56:47;31.63;;;5.32;;
22549;SDS011;11441;57.164;-2.120;2022-11-15T17:59:14;24.25;;;5.30;;
22549;SDS011;11441;57.164;-2.120;2022-11-15T18:01:47;25.48;;;5.32;;
22549;SDS011;11441;57.164;-2.120;2022-11-15T18:04:14;27.85;;;4.93;;
22549;SDS011;11441;57.164;-2.120;2022-11-15T18:06:41;20.27;;;4.45;;
22549;SDS011;11441;57.164;-2.120;2022-11-15T18:09:08;28.83;;;5.55;;
22549;SDS011;11441;57.164;-2.120;2022-11-15T18:11:54;23.95;;;5.07;;
22549;SDS011;11441;57.164;-2.120;2022-11-15T18:14:21;21.75;;;4.43;;
22549;SDS011;11441;57.164;-2.120;2022-11-15T18:16:47;15.02;;;4.13;;
22549;SDS011;11441;57.164;-2.120;2022-11-15T18:19:14;18.33;;;4.40;;
22549;SDS011;11441;57.164;-2.120;2022-11-15T18:21:42;25.80;;;4.30;;
22549;SDS011;11441;57.164;-2.120;2022-11-15T18:26:57;22.27;;;4.22;;
22549;SDS011;11441;57.164;-2.120;2022-11-15T18:29:25;18.15;;;3.80;;
22549;SDS011;11441;57.164;-2.120;2022-11-15T18:31:53;12.95;;;3.00;;
22549;SDS011;11441;57.164;-2.120;2022-11-15T18:34:22;25.38;;;5.57;;
22549;SDS011;11441;57.164;-2.120;2022-11-15T18:36:50;25.58;;;5.20;;